sensor_id;sensor_type;location;lat;lon;timestamp;P1;durP1;ratioP1;P2;durP2;ratioP2
10142;SDS011;5112;54.088;13.446;2023-07-29T00:00:19;4.80;;;4.40;;
10142;SDS011;5112;54.088;13.446;2023-07-29T00:10:22;4.43;;;4.13;;
10142;SDS011;5112;54.088;13.446;2023-07-29T00:20:25;4.50;;;4.17;;
10142;SDS011;5112;54.088;13.446;2023-07-29T00:30:27;4.37;;;3.97;;
10142;SDS011;5112;54.088;13.446;2023-07-29T00:40:30;3.97;;;3.70;;
10142;SDS011;5112;54.088;13.446;2023-07-29T00:50:35;4.07;;;3.70;;
10142;SDS011;5112;54.088;13.446;2023-07-29T01:00:38;3.87;;;3.57;;
10142;SDS011;5112;54.088;13.446;2023-07-29T01:10:43;4.20;;;3.90;;
10142;SDS011;5112;54.088;13.446;2023-07-29T01:20:53;3.37;;;3.10;;
10142;SDS011;5112;54.088;13.446;2023-07-29T01:30:59;4.10;;;3.77;;
10142;SDS011;5112;54.088;13.446;2023-07-29T01:41:06;4.73;;;4.17;;
10142;SDS011;5112;54.088;13.446;2023-07-29T01:51:11;4.20;;;3.90;;
10142;SDS011;5112;54.088;13.446;2023-07-29T02:01:13;4.17;;;3.87;;
10142;SDS011;5112;54.088;13.446;2023-07-29T02:11:16;5.07;;;4.67;;
10142;SDS011;5112;54.088;13.446;2023-07-29T02:21:20;4.90;;;4.50;;
10142;SDS011;5112;54.088;13.446;2023-07-29T02:31:24;6.70;;;4.97;;
10142;SDS011;5112;54.088;13.446;2023-07-29T02:41:26;7.57;;;5.80;;
10142;SDS011;5112;54.088;13.446;2023-07-29T02:51:29;6.43;;;5.73;;
10142;SDS011;5112;54.088;13.446;2023-07-29T03:01:30;6.20;;;5.70;;
10142;SDS011;5112;54.088;13.446;2023-07-29T03:11:34;6.63;;;6.00;;
10142;SDS011;5112;54.088;13.446;2023-07-29T03:21:35;8.73;;;6.27;;
10142;SDS011;5112;54.088;13.446;2023-07-29T03:31:38;6.30;;;5.70;;
10142;SDS011;5112;54.088;13.446;2023-07-29T03:41:40;6.90;;;6.20;;
10142;SDS011;5112;54.088;13.446;2023-07-29T03:51:43;6.20;;;5.70;;
10142;SDS011;5112;54.088;13.446;2023-07-29T04:01:45;5.83;;;5.23;;
10142;SDS011;5112;54.088;13.446;2023-07-29T04:11:48;6.77;;;5.80;;
10142;SDS011;5112;54.088;13.446;2023-07-29T04:21:50;5.47;;;4.97;;
10142;SDS011;5112;54.088;13.446;2023-07-29T04:31:53;4.77;;;4.37;;
10142;SDS011;5112;54.088;13.446;2023-07-29T04:41:55;4.57;;;3.67;;
10142;SDS011;5112;54.088;13.446;2023-07-29T04:51:58;4.70;;;3.97;;
10142;SDS011;5112;54.088;13.446;2023-07-29T05:02:00;4.13;;;3.77;;
10142;SDS011;5112;54.088;13.446;2023-07-29T05:12:03;3.93;;;3.67;;
10142;SDS011;5112;54.088;13.446;2023-07-29T05:22:06;4.60;;;4.20;;
10142;SDS011;5112;54.088;13.446;2023-07-29T05:32:09;4.60;;;4.20;;
10142;SDS011;5112;54.088;13.446;2023-07-29T05:42:10;5.33;;;4.63;;
10142;SDS011;5112;54.088;13.446;2023-07-29T05:52:13;5.27;;;4.87;;
10142;SDS011;5112;54.088;13.446;2023-07-29T06:02:15;6.10;;;5.60;;
10142;SDS011;5112;54.088;13.446;2023-07-29T06:12:18;6.63;;;5.97;;
10142;SDS011;5112;54.088;13.446;2023-07-29T06:22:20;5.40;;;5.00;;
10142;SDS011;5112;54.088;13.446;2023-07-29T06:32:23;5.23;;;4.83;;
10142;SDS011;5112;54.088;13.446;2023-07-29T06:42:25;5.57;;;4.60;;
10142;SDS011;5112;54.088;13.446;2023-07-29T06:52:28;5.27;;;4.77;;
10142;SDS011;5112;54.088;13.446;2023-07-29T07:02:29;4.37;;;4.07;;
10142;SDS011;5112;54.088;13.446;2023-07-29T07:12:32;5.70;;;4.53;;
10142;SDS011;5112;54.088;13.446;2023-07-29T07:22:34;3.90;;;3.50;;
10142;SDS011;5112;54.088;13.446;2023-07-29T07:32:37;4.80;;;3.13;;
10142;SDS011;5112;54.088;13.446;2023-07-29T07:42:39;3.07;;;2.87;;
10142;SDS011;5112;54.088;13.446;2023-07-29T07:52:42;2.73;;;2.60;;
10142;SDS011;5112;54.088;13.446;2023-07-29T08:02:43;2.10;;;2.00;;
10142;SDS011;5112;54.088;13.446;2023-07-29T08:12:47;2.70;;;2.47;;
10142;SDS011;5112;54.088;13.446;2023-07-29T08:22:48;3.13;;;2.33;;
10142;SDS011;5112;54.088;13.446;2023-07-29T08:32:51;4.33;;;2.90;;
10142;SDS011;5112;54.088;13.446;2023-07-29T08:42:53;3.10;;;2.90;;
10142;SDS011;5112;54.088;13.446;2023-07-29T08:52:59;4.47;;;3.10;;
10142;SDS011;5112;54.088;13.446;2023-07-29T09:03:02;35.93;;;6.47;;
10142;SDS011;5112;54.088;13.446;2023-07-29T09:13:07;4.13;;;3.20;;
10142;SDS011;5112;54.088;13.446;2023-07-29T09:23:09;3.23;;;2.93;;
10142;SDS011;5112;54.088;13.446;2023-07-29T09:33:12;2.80;;;2.60;;
10142;SDS011;5112;54.088;13.446;2023-07-29T09:43:14;3.30;;;3.10;;
10142;SDS011;5112;54.088;13.446;2023-07-29T09:53:19;3.67;;;3.33;;
10142;SDS011;5112;54.088;13.446;2023-07-29T10:03:21;3.10;;;2.90;;
10142;SDS011;5112;54.088;13.446;2023-07-29T10:13:25;3.77;;;3.47;;
10142;SDS011;5112;54.088;13.446;2023-07-29T10:23:27;3.67;;;3.30;;
10142;SDS011;5112;54.088;13.446;2023-07-29T10:33:36;5.23;;;4.83;;
10142;SDS011;5112;54.088;13.446;2023-07-29T10:43:39;4.37;;;3.97;;
10142;SDS011;5112;54.088;13.446;2023-07-29T10:53:42;6.10;;;5.60;;
10142;SDS011;5112;54.088;13.446;2023-07-29T11:03:49;8.60;;;7.87;;
10142;SDS011;5112;54.088;13.446;2023-07-29T11:14:04;6.87;;;6.27;;
10142;SDS011;5112;54.088;13.446;2023-07-29T11:24:08;7.00;;;6.30;;
10142;SDS011;5112;54.088;13.446;2023-07-29T11:34:12;7.30;;;6.67;;
10142;SDS011;5112;54.088;13.446;2023-07-29T11:44:18;8.83;;;8.03;;
10142;SDS011;5112;54.088;13.446;2023-07-29T11:54:21;7.90;;;7.20;;
10142;SDS011;5112;54.088;13.446;2023-07-29T12:04:23;7.63;;;7.03;;
10142;SDS011;5112;54.088;13.446;2023-07-29T12:14:27;8.93;;;8.20;;
10142;SDS011;5112;54.088;13.446;2023-07-29T12:24:29;6.93;;;6.43;;
10142;SDS011;5112;54.088;13.446;2023-07-29T12:34:33;6.77;;;6.27;;
10142;SDS011;5112;54.088;13.446;2023-07-29T12:44:36;5.20;;;4.80;;
10142;SDS011;5112;54.088;13.446;2023-07-29T12:54:40;5.03;;;4.47;;
10142;SDS011;5112;54.088;13.446;2023-07-29T13:04:44;5.37;;;4.97;;
10142;SDS011;5112;54.088;13.446;2023-07-29T13:14:47;4.93;;;4.43;;
10142;SDS011;5112;54.088;13.446;2023-07-29T13:24:48;4.07;;;3.77;;
10142;SDS011;5112;54.088;13.446;2023-07-29T13:34:52;3.77;;;3.57;;
10142;SDS011;5112;54.088;13.446;2023-07-29T13:44:53;3.77;;;3.40;;
10142;SDS011;5112;54.088;13.446;2023-07-29T13:54:56;3.80;;;3.50;;
10142;SDS011;5112;54.088;13.446;2023-07-29T14:04:58;3.80;;;3.50;;
10142;SDS011;5112;54.088;13.446;2023-07-29T14:15:01;3.87;;;2.07;;
10142;SDS011;5112;54.088;13.446;2023-07-29T14:25:03;4.13;;;2.30;;
10142;SDS011;5112;54.088;13.446;2023-07-29T14:35:07;4.00;;;2.07;;
10142;SDS011;5112;54.088;13.446;2023-07-29T14:45:09;3.87;;;3.07;;
10142;SDS011;5112;54.088;13.446;2023-07-29T14:55:13;6.87;;;6.27;;
10142;SDS011;5112;54.088;13.446;2023-07-29T15:05:14;3.23;;;2.40;;
10142;SDS011;5112;54.088;13.446;2023-07-29T15:15:17;3.43;;;3.13;;
10142;SDS011;5112;54.088;13.446;2023-07-29T15:25:19;2.63;;;2.43;;
10142;SDS011;5112;54.088;13.446;2023-07-29T15:35:22;3.27;;;2.97;;
10142;SDS011;5112;54.088;13.446;2023-07-29T15:45:24;3.50;;;3.00;;
10142;SDS011;5112;54.088;13.446;2023-07-29T15:55:27;2.63;;;2.43;;
10142;SDS011;5112;54.088;13.446;2023-07-29T16:05:29;4.63;;;4.23;;
10142;SDS011;5112;54.088;13.446;2023-07-29T16:15:32;3.07;;;2.77;;
10142;SDS011;5112;54.088;13.446;2023-07-29T16:25:34;2.50;;;2.30;;
10142;SDS011;5112;54.088;13.446;2023-07-29T16:35:37;2.30;;;2.20;;
10142;SDS011;5112;54.088;13.446;2023-07-29T16:45:39;2.33;;;2.20;;
10142;SDS011;5112;54.088;13.446;2023-07-29T16:55:42;3.03;;;2.73;;
10142;SDS011;5112;54.088;13.446;2023-07-29T17:05:44;2.70;;;2.50;;
10142;SDS011;5112;54.088;13.446;2023-07-29T17:15:47;2.40;;;2.20;;
10142;SDS011;5112;54.088;13.446;2023-07-29T17:25:48;3.20;;;2.30;;
10142;SDS011;5112;54.088;13.446;2023-07-29T17:35:51;2.80;;;2.60;;
10142;SDS011;5112;54.088;13.446;2023-07-29T17:45:55;2.63;;;2.43;;
10142;SDS011;5112;54.088;13.446;2023-07-29T17:55:58;3.33;;;2.90;;
10142;SDS011;5112;54.088;13.446;2023-07-29T18:05:59;3.83;;;3.53;;
10142;SDS011;5112;54.088;13.446;2023-07-29T18:16:02;3.63;;;3.33;;
10142;SDS011;5112;54.088;13.446;2023-07-29T18:26:04;4.50;;;3.47;;
10142;SDS011;5112;54.088;13.446;2023-07-29T18:36:07;2.50;;;2.30;;
10142;SDS011;5112;54.088;13.446;2023-07-29T18:46:09;5.03;;;3.70;;
10142;SDS011;5112;54.088;13.446;2023-07-29T18:56:13;4.80;;;3.57;;
10142;SDS011;5112;54.088;13.446;2023-07-29T19:06:15;3.10;;;2.80;;
10142;SDS011;5112;54.088;13.446;2023-07-29T19:16:18;3.20;;;2.90;;
10142;SDS011;5112;54.088;13.446;2023-07-29T19:26:20;3.00;;;2.80;;
10142;SDS011;5112;54.088;13.446;2023-07-29T19:36:23;2.73;;;2.53;;
10142;SDS011;5112;54.088;13.446;2023-07-29T19:46:25;2.63;;;2.43;;
10142;SDS011;5112;54.088;13.446;2023-07-29T19:56:28;3.10;;;2.90;;
10142;SDS011;5112;54.088;13.446;2023-07-29T20:06:30;3.83;;;3.43;;
10142;SDS011;5112;54.088;13.446;2023-07-29T20:16:34;3.47;;;3.17;;
10142;SDS011;5112;54.088;13.446;2023-07-29T20:26:36;4.10;;;3.70;;
10142;SDS011;5112;54.088;13.446;2023-07-29T20:36:39;3.73;;;3.40;;
10142;SDS011;5112;54.088;13.446;2023-07-29T20:46:40;3.60;;;3.30;;
10142;SDS011;5112;54.088;13.446;2023-07-29T20:56:43;4.93;;;4.43;;
10142;SDS011;5112;54.088;13.446;2023-07-29T21:06:45;4.30;;;4.00;;
10142;SDS011;5112;54.088;13.446;2023-07-29T21:16:48;4.93;;;4.30;;
10142;SDS011;5112;54.088;13.446;2023-07-29T21:26:50;5.07;;;4.67;;
10142;SDS011;5112;54.088;13.446;2023-07-29T21:36:53;5.33;;;4.83;;
10142;SDS011;5112;54.088;13.446;2023-07-29T21:46:54;5.73;;;5.13;;
10142;SDS011;5112;54.088;13.446;2023-07-29T21:56:57;5.57;;;5.03;;
10142;SDS011;5112;54.088;13.446;2023-07-29T22:06:59;6.73;;;5.43;;
10142;SDS011;5112;54.088;13.446;2023-07-29T22:17:02;6.63;;;6.03;;
10142;SDS011;5112;54.088;13.446;2023-07-29T22:27:04;6.53;;;5.90;;
10142;SDS011;5112;54.088;13.446;2023-07-29T22:37:09;5.30;;;4.90;;
10142;SDS011;5112;54.088;13.446;2023-07-29T22:47:11;6.07;;;5.47;;
10142;SDS011;5112;54.088;13.446;2023-07-29T22:57:14;5.83;;;5.23;;
10142;SDS011;5112;54.088;13.446;2023-07-29T23:07:15;7.17;;;5.17;;
10142;SDS011;5112;54.088;13.446;2023-07-29T23:17:18;6.77;;;5.07;;
10142;SDS011;5112;54.088;13.446;2023-07-29T23:27:21;6.53;;;5.37;;
10142;SDS011;5112;54.088;13.446;2023-07-29T23:37:24;6.73;;;4.87;;
10142;SDS011;5112;54.088;13.446;2023-07-29T23:47:25;6.43;;;5.43;;
10142;SDS011;5112;54.088;13.446;2023-07-29T23:57:28;5.30;;;4.90;;
